Time;durP1;ratioP1;P1;durP2;ratioP2;P2;SDS_P1;SDS_P2;PMS_P1;PMS_P2;Temp;Humidity;BMP_temperature;BMP_pressure;BME280_temperature;BME280_humidity;BME280_pressure;Samples;Min_cycle;Max_cycle;Signal;HPM_P1;HPM_P2
2023/12/01 00:02:05;;;;;;;100.50;30.10;;;-0.10;99.90;;;;;;5094512;28;20047;-72
2023/12/01 00:04:30;;;;;;;102.35;30.75;;;-0.20;99.90;;;;;;5094671;28;20377;-72
2023/12/01 00:06:56;;;;;;;106.15;29.98;;;-0.10;99.90;;;;;;5094833;28;20039;-72
2023/12/01 00:09:22;;;;;;;97.30;27.92;;;-0.10;99.90;;;;;;5094380;28;20047;-72
2023/12/01 00:11:47;;;;;;;139.95;30.10;;;-0.10;99.90;;;;;;5094196;28;20044;-72
2023/12/01 00:14:13;;;;;;;159.10;30.38;;;-0.10;99.90;;;;;;5077474;28;20036;-72
2023/12/01 00:16:39;;;;;;;127.50;29.67;;;-0.10;99.90;;;;;;5077701;28;20040;-72
2023/12/01 00:19:05;;;;;;;160.32;30.05;;;-0.20;99.90;;;;;;5094431;28;20148;-72
2023/12/01 00:21:30;;;;;;;169.90;31.02;;;-0.20;99.90;;;;;;5094156;28;20039;-71
2023/12/01 00:23:56;;;;;;;147.52;31.50;;;-0.20;99.90;;;;;;5077273;28;20079;-72
2023/12/01 00:26:22;;;;;;;174.75;30.40;;;-0.20;99.90;;;;;;5094146;28;20044;-72
2023/12/01 00:28:47;;;;;;;134.60;31.05;;;-0.20;99.90;;;;;;5077453;28;20044;-72
2023/12/01 00:31:13;;;;;;;127.22;30.77;;;-0.20;99.90;;;;;;5093750;28;20048;-72
2023/12/01 00:33:39;;;;;;;179.18;32.65;;;-0.20;99.90;;;;;;5093906;28;20072;-72
2023/12/01 00:36:05;;;;;;;109.93;30.15;;;-0.30;99.90;;;;;;5094167;28;20123;-72
2023/12/01 00:38:32;;;;;;;99.45;28.80;;;-0.30;99.90;;;;;;5093985;28;20032;-72
2023/12/01 00:40:57;;;;;;;143.23;29.80;;;-0.20;99.90;;;;;;5093897;28;20040;-72
2023/12/01 00:43:24;;;;;;;106.40;28.98;;;-0.20;99.90;;;;;;5093956;28;20093;-72
2023/12/01 00:45:50;;;;;;;86.90;25.98;;;-0.30;99.90;;;;;;5094053;28;20036;-72
2023/12/01 00:48:15;;;;;;;89.35;28.05;;;-0.30;99.90;;;;;;5093736;28;20093;-72
2023/12/01 00:50:41;;;;;;;78.05;26.00;;;-0.30;99.90;;;;;;5076444;28;20093;-72
2023/12/01 00:53:08;;;;;;;70.07;24.15;;;-0.30;99.90;;;;;;5077005;28;20036;-72
2023/12/01 00:55:35;;;;;;;68.55;24.77;;;-0.20;99.90;;;;;;5093566;28;20147;-72
2023/12/01 00:58:01;;;;;;;64.13;23.17;;;-0.30;99.90;;;;;;5093604;28;20040;-72
2023/12/01 01:00:27;;;;;;;53.20;22.08;;;-0.30;99.90;;;;;;5076543;28;20036;-72
2023/12/01 01:02:52;;;;;;;57.10;21.08;;;-0.30;99.90;;;;;;5093348;28;20063;-72
2023/12/01 01:05:18;;;;;;;49.92;20.38;;;-0.30;99.90;;;;;;5093533;28;20097;-72
2023/12/01 01:07:44;;;;;;;54.47;22.45;;;-0.30;99.90;;;;;;5093631;28;20130;-72
2023/12/01 01:10:10;;;;;;;62.13;23.15;;;-0.10;99.90;;;;;;5093278;28;20109;-72
2023/12/01 01:12:36;;;;;;;56.47;22.73;;;-0.30;99.90;;;;;;5093132;28;20132;-72
2023/12/01 01:15:03;;;;;;;68.57;24.90;;;-0.30;99.90;;;;;;5093088;28;20036;-72
2023/12/01 01:17:31;;;;;;;62.92;23.40;;;-0.30;99.90;;;;;;5076137;28;20043;-72
2023/12/01 01:19:58;;;;;;;55.70;23.58;;;-0.30;99.90;;;;;;5076185;28;20123;-72
2023/12/01 01:22:24;;;;;;;47.97;21.55;;;-0.30;99.90;;;;;;5093130;28;20043;-72
2023/12/01 01:24:51;;;;;;;46.63;21.52;;;-0.40;99.90;;;;;;5092990;28;20054;-72
2023/12/01 01:27:16;;;;;;;50.00;21.95;;;-0.40;99.90;;;;;;5092784;28;20093;-72
2023/12/01 01:29:43;;;;;;;44.03;21.00;;;-0.40;99.90;;;;;;5059370;28;20047;-72
2023/12/01 01:32:09;;;;;;;41.78;20.10;;;-0.40;99.90;;;;;;5092741;28;20036;-72
2023/12/01 01:34:35;;;;;;;43.17;20.85;;;-0.40;99.90;;;;;;5092709;28;20036;-72
2023/12/01 01:37:01;;;;;;;47.38;22.45;;;-0.50;99.90;;;;;;5075953;28;20032;-72
2023/12/01 01:39:26;;;;;;;42.78;20.58;;;-0.50;99.90;;;;;;5092612;28;20058;-72
2023/12/01 01:41:53;;;;;;;45.15;20.98;;;-0.50;99.90;;;;;;5092483;28;20043;-72
2023/12/01 01:44:19;;;;;;;46.60;22.52;;;-0.50;99.90;;;;;;5092820;28;20400;-72
2023/12/01 01:46:46;;;;;;;44.40;20.50;;;-0.50;99.90;;;;;;5092531;28;20063;-72
2023/12/01 01:49:12;;;;;;;45.40;22.42;;;-0.50;99.90;;;;;;5092584;28;20036;-69
2023/12/01 01:51:39;;;;;;;42.83;21.30;;;-0.60;99.90;;;;;;5092308;28;20040;-70
2023/12/01 01:54:05;;;;;;;39.80;17.38;;;-0.60;99.90;;;;;;5092452;28;20044;-69
2023/12/01 01:56:32;;;;;;;43.45;20.63;;;-0.60;99.90;;;;;;5092528;28;20101;-70
2023/12/01 01:58:58;;;;;;;46.28;21.10;;;-0.60;99.90;;;;;;5092426;28;20040;-69
2023/12/01 02:01:25;;;;;;;40.28;19.42;;;-0.60;99.90;;;;;;5075415;28;20244;-69
2023/12/01 02:03:54;;;;;;;43.83;21.45;;;-0.80;99.90;;;;;;5091614;28;20044;-69
2023/12/01 02:06:30;;;;;;;44.17;21.45;;;-0.80;99.90;;;;;;5092190;28;20055;-69
2023/12/01 02:08:57;;;;;;;47.15;22.23;;;-0.70;99.90;;;;;;5092150;28;20036;-70
2023/12/01 02:11:25;;;;;;;47.10;21.80;;;-0.70;99.90;;;;;;5075444;28;20047;-70
2023/12/01 02:13:52;;;;;;;39.17;19.17;;;-0.80;99.90;;;;;;5075391;28;20119;-70
2023/12/01 02:16:18;;;;;;;45.58;20.73;;;-0.70;99.90;;;;;;5092040;28;20036;-70
2023/12/01 02:18:44;;;;;;;36.63;17.65;;;-0.70;99.90;;;;;;5075249;28;20039;-70
2023/12/01 02:21:09;;;;;;;43.33;20.13;;;-0.80;99.90;;;;;;5075115;28;20043;-70
2023/12/01 02:23:35;;;;;;;42.35;20.20;;;-0.80;99.90;;;;;;5091790;28;20067;-70
2023/12/01 02:26:01;;;;;;;45.00;20.55;;;-0.90;99.90;;;;;;5092132;28;20040;-70
2023/12/01 02:28:27;;;;;;;44.15;21.23;;;-0.90;99.90;;;;;;5093183;28;20032;-70
2023/12/01 02:30:54;;;;;;;44.90;20.08;;;-0.80;99.90;;;;;;5092020;28;20040;-70
2023/12/01 02:33:21;;;;;;;47.75;21.70;;;-0.90;99.90;;;;;;5091901;28;20036;-70
2023/12/01 02:35:49;;;;;;;53.15;21.95;;;-0.90;99.90;;;;;;5091708;28;20073;-70
2023/12/01 02:38:15;;;;;;;45.00;20.65;;;-0.90;99.90;;;;;;5091891;28;20061;-70
2023/12/01 02:40:49;;;;;;;45.13;19.77;;;-0.90;99.90;;;;;;5091976;28;20482;-70
2023/12/01 02:43:18;;;;;;;50.63;21.05;;;-0.90;99.90;;;;;;5075141;28;20408;-70
2023/12/01 02:45:44;;;;;;;37.17;17.08;;;-0.90;99.90;;;;;;5091942;28;20499;-69
2023/12/01 02:48:10;;;;;;;49.53;21.23;;;-0.70;99.90;;;;;;5091919;28;20427;-70
2023/12/01 02:50:37;;;;;;;52.05;21.15;;;-1.00;99.90;;;;;;5091584;28;20404;-70
2023/12/01 02:53:04;;;;;;;60.80;24.08;;;-1.00;99.90;;;;;;5091837;28;20522;-69
2023/12/01 02:55:30;;;;;;;51.92;20.70;;;-1.10;99.90;;;;;;5091712;28;20051;-70
2023/12/01 02:57:59;;;;;;;59.45;23.63;;;-1.10;99.90;;;;;;5091967;28;20036;-72
2023/12/01 03:00:25;;;;;;;64.68;22.67;;;-1.20;99.90;;;;;;5075201;28;20044;-70
2023/12/01 03:02:51;;;;;;;57.35;21.73;;;-1.30;99.90;;;;;;5091744;28;20545;-70
2023/12/01 03:05:18;;;;;;;68.97;23.48;;;-1.40;99.90;;;;;;5074617;28;20119;-70
2023/12/01 03:07:44;;;;;;;47.05;18.17;;;-1.30;99.90;;;;;;5091314;28;20051;-70
2023/12/01 03:10:11;;;;;;;50.28;21.33;;;-1.20;99.90;;;;;;5091355;28;20032;-70
2023/12/01 03:12:37;;;;;;;58.63;22.23;;;-1.30;99.90;;;;;;5091334;28;20040;-70
2023/12/01 03:15:08;;;;;;;55.33;21.67;;;-1.30;99.90;;;;;;5078135;28;20059;-70
2023/12/01 03:17:35;;;;;;;;;;;-1.30;99.90;;;;;;5096188;28;20085;-70
2023/12/01 03:20:01;;;;;;;49.60;19.95;;;-1.30;99.90;;;;;;5095388;28;19920;-70
2023/12/01 03:22:26;;;;;;;45.50;20.35;;;-1.50;99.90;;;;;;5078746;28;20613;-70
2023/12/01 03:24:53;;;;;;;45.97;21.15;;;-1.50;99.90;;;;;;5095443;28;20044;-69
2023/12/01 03:27:19;;;;;;;49.85;21.38;;;-1.60;99.90;;;;;;5095512;28;20043;-69
2023/12/01 03:29:48;;;;;;;54.20;23.65;;;-1.60;99.90;;;;;;5095378;28;20556;-70
2023/12/01 03:32:15;;;;;;;54.17;22.58;;;-1.70;99.90;;;;;;5095142;28;20178;-70
2023/12/01 03:34:40;;;;;;;43.72;19.73;;;-1.70;99.90;;;;;;5078492;28;20040;-69
2023/12/01 03:37:06;;;;;;;50.95;20.98;;;-1.70;99.90;;;;;;5078136;28;20036;-70
2023/12/01 03:39:32;;;;;;;48.00;21.17;;;-1.70;99.90;;;;;;5095016;28;20059;-70
2023/12/01 03:41:58;;;;;;;44.00;21.33;;;-1.70;99.90;;;;;;5095180;28;20558;-70
2023/12/01 03:44:24;;;;;;;52.22;23.25;;;-1.70;99.90;;;;;;5095262;28;20406;-69
2023/12/01 03:46:50;;;;;;;47.53;21.48;;;-1.70;99.90;;;;;;5078142;28;20126;-69
2023/12/01 03:49:16;;;;;;;49.28;22.42;;;-1.70;99.90;;;;;;5095203;28;20108;-70
2023/12/01 03:51:41;;;;;;;50.85;23.73;;;-1.60;99.90;;;;;;5094544;28;20048;-70
2023/12/01 03:54:07;;;;;;;43.92;20.38;;;-1.60;99.90;;;;;;5094997;28;20036;-69
2023/12/01 03:56:36;;;;;;;48.50;22.25;;;-1.60;99.90;;;;;;5077779;28;20039;-70
2023/12/01 03:59:03;;;;;;;46.80;22.00;;;-1.60;99.90;;;;;;5094650;28;20047;-70
2023/12/01 04:01:29;;;;;;;48.20;21.35;;;-1.60;99.90;;;;;;5094983;28;20083;-69
2023/12/01 04:03:55;;;;;;;51.45;23.02;;;-1.60;99.90;;;;;;5094493;28;20142;-69
2023/12/01 04:06:21;;;;;;;52.90;24.05;;;-1.60;99.90;;;;;;5094511;28;20075;-69
2023/12/01 04:08:47;;;;;;;47.40;23.35;;;-1.20;99.90;;;;;;5094702;28;20507;-69
2023/12/01 04:11:12;;;;;;;53.88;23.75;;;-1.60;99.90;;;;;;5094475;28;20036;-69
2023/12/01 04:13:38;;;;;;;51.25;23.13;;;-1.60;99.90;;;;;;5077484;28;20043;-69
2023/12/01 04:16:04;;;;;;;50.55;20.63;;;-1.60;99.90;;;;;;5077507;28;20070;-69
2023/12/01 04:18:30;;;;;;;47.70;21.88;;;-1.60;99.90;;;;;;5077496;28;20044;-70
2023/12/01 04:21:00;;;;;;;57.40;25.45;;;-1.70;99.90;;;;;;5094276;28;20530;-69
2023/12/01 04:23:26;;;;;;;52.22;23.38;;;-1.80;99.90;;;;;;5094172;28;20040;-69
2023/12/01 04:25:52;;;;;;;52.67;23.08;;;-1.80;99.90;;;;;;5093365;28;20040;-69
2023/12/01 04:28:18;;;;;;;49.25;22.73;;;-1.70;99.90;;;;;;5077233;28;20512;-69
2023/12/01 04:30:43;;;;;;;50.63;21.73;;;-1.70;99.90;;;;;;5093990;28;20044;-69
2023/12/01 04:33:09;;;;;;;52.05;22.63;;;-1.80;99.90;;;;;;5094294;28;20476;-69
2023/12/01 04:35:36;;;;;;;49.88;22.05;;;-1.70;99.90;;;;;;5094265;28;20090;-69
2023/12/01 04:38:08;;;;;;;48.03;22.08;;;-1.70;99.90;;;;;;5077349;28;20039;-69
2023/12/01 04:40:36;;;;;;;50.35;22.13;;;-1.70;99.90;;;;;;5093802;28;20047;-69
2023/12/01 04:43:03;;;;;;;52.40;22.38;;;-1.70;99.90;;;;;;5094107;28;20032;-69
2023/12/01 04:45:32;;;;;;;51.13;22.95;;;-1.80;99.90;;;;;;5094028;28;20043;-69
2023/12/01 04:47:58;;;;;;;54.20;23.67;;;-1.80;99.90;;;;;;5093718;28;20083;-69
2023/12/01 04:50:26;;;;;;;53.63;23.75;;;-1.80;99.90;;;;;;5093517;28;20084;-69
2023/12/01 04:53:00;;;;;;;55.95;23.10;;;-1.80;99.90;;;;;;5093567;28;20549;-69
2023/12/01 04:55:28;;;;;;;49.35;21.63;;;-1.70;99.90;;;;;;5093842;28;20504;-69
2023/12/01 04:57:55;;;;;;;55.42;23.15;;;-1.70;99.90;;;;;;5093766;28;20686;-69
2023/12/01 05:00:22;;;;;;;47.40;20.88;;;-1.70;99.90;;;;;;5093512;28;20044;-69
2023/12/01 05:02:53;;;;;;;52.67;22.88;;;-1.70;99.90;;;;;;5093596;28;20487;-69
2023/12/01 05:05:24;;;;;;;52.97;22.92;;;-1.70;99.90;;;;;;5076440;28;20039;-69
2023/12/01 05:07:52;;;;;;;53.05;23.35;;;-1.70;99.90;;;;;;5076488;28;20116;-69
2023/12/01 05:10:21;;;;;;;56.30;23.70;;;-1.80;99.90;;;;;;5093208;28;20123;-69
2023/12/01 05:12:52;;;;;;;51.75;22.67;;;-1.80;99.90;;;;;;5093091;28;20483;-69
2023/12/01 05:15:19;;;;;;;46.33;20.48;;;-1.80;99.90;;;;;;5093158;28;20097;-69
2023/12/01 05:17:49;;;;;;;43.38;19.85;;;-1.80;99.90;;;;;;5093121;28;20048;-69
2023/12/01 05:20:19;;;;;;;47.55;21.48;;;-1.90;99.90;;;;;;5093505;28;20050;-69
2023/12/01 05:22:49;;;;;;;47.95;20.30;;;-1.90;99.90;;;;;;5093398;28;20044;-69
2023/12/01 05:25:17;;;;;;;45.08;20.13;;;-1.90;99.90;;;;;;5093348;28;20082;-69
2023/12/01 05:27:50;;;;;;;46.50;20.55;;;-1.90;99.90;;;;;;5092959;28;20113;-69
2023/12/01 05:30:24;;;;;;;46.45;20.58;;;-1.90;99.90;;;;;;5092774;28;20123;-69
2023/12/01 05:32:52;;;;;;;47.45;20.27;;;-1.90;99.90;;;;;;5092932;28;20071;-69
2023/12/01 05:35:19;;;;;;;44.38;19.80;;;-2.00;99.90;;;;;;5092779;28;20032;-69
2023/12/01 05:37:50;;;;;;;42.30;20.33;;;-2.00;99.90;;;;;;5092108;28;20122;-69
2023/12/01 05:40:29;;;;;;;40.15;19.15;;;-2.10;99.90;;;;;;5092843;28;20499;-69
2023/12/01 05:42:56;;;;;;;40.28;18.60;;;-2.10;99.90;;;;;;5092658;28;20043;-69
2023/12/01 05:45:24;;;;;;;42.50;19.60;;;-2.00;99.90;;;;;;5092597;28;20090;-69
2023/12/01 05:47:52;;;;;;;39.03;18.77;;;-2.00;99.90;;;;;;5092595;28;20046;-69
2023/12/01 05:50:29;;;;;;;41.40;20.50;;;-2.00;99.90;;;;;;5092286;28;20076;-69
2023/12/01 05:52:57;;;;;;;41.58;18.77;;;-2.10;99.90;;;;;;5075977;28;20092;-69
2023/12/01 05:55:28;;;;;;;35.17;16.98;;;-2.10;99.90;;;;;;5092711;28;20042;-69
2023/12/01 05:57:58;;;;;;;37.20;16.95;;;-2.20;99.90;;;;;;5092699;28;20414;-69
2023/12/01 06:00:29;;;;;;;37.55;16.95;;;-2.20;99.90;;;;;;5058755;28;20031;-70
2023/12/01 06:02:59;;;;;;;36.40;16.65;;;-2.30;99.90;;;;;;5092281;28;20051;-70
2023/12/01 06:05:26;;;;;;;35.40;16.70;;;-2.30;99.90;;;;;;5092530;28;20043;-70
2023/12/01 06:07:57;;;;;;;33.75;15.80;;;-2.30;99.90;;;;;;5075335;28;20051;-71
2023/12/01 06:10:24;;;;;;;34.60;16.85;;;-2.30;99.90;;;;;;5075855;28;20084;-70
2023/12/01 06:12:50;;;;;;;37.63;17.48;;;-2.40;99.90;;;;;;5075379;28;20075;-70
2023/12/01 06:15:18;;;;;;;37.22;17.17;;;-2.50;99.90;;;;;;5091974;28;20110;-70
2023/12/01 06:17:49;;;;;;;37.10;18.00;;;-2.50;99.90;;;;;;5092270;28;20032;-70
2023/12/01 06:20:17;;;;;;;39.67;19.02;;;-2.40;99.90;;;;;;5092212;28;20036;-71
2023/12/01 06:22:47;;;;;;;39.53;18.50;;;-2.50;99.90;;;;;;5091989;28;20111;-69
2023/12/01 06:25:18;;;;;;;46.53;24.70;;;-2.50;99.90;;;;;;5091976;28;20040;-70
2023/12/01 06:27:44;;;;;;;51.30;26.10;;;-2.50;99.90;;;;;;5091971;28;20177;-70
2023/12/01 06:30:12;;;;;;;45.55;23.52;;;-2.50;99.90;;;;;;5075249;28;20071;-72
2023/12/01 06:32:42;;;;;;;46.03;23.45;;;-2.50;99.90;;;;;;5075279;28;20185;-72
2023/12/01 06:35:11;;;;;;;44.10;23.63;;;-2.50;99.90;;;;;;5091765;28;20105;-72
2023/12/01 06:37:40;;;;;;;39.20;18.70;;;-2.50;99.90;;;;;;5074879;28;20130;-73
2023/12/01 06:40:15;;;;;;;41.75;19.65;;;-2.60;99.90;;;;;;5091725;28;20189;-72
2023/12/01 06:42:47;;;;;;;31.63;16.52;;;-2.50;99.90;;;;;;5075110;28;20083;-72
2023/12/01 06:45:15;;;;;;;31.40;16.45;;;-2.60;99.90;;;;;;5091729;28;20036;-73
2023/12/01 06:47:42;;;;;;;34.20;17.15;;;-2.60;99.90;;;;;;5091834;28;20044;-73
2023/12/01 06:50:14;;;;;;;36.45;17.85;;;-2.60;99.90;;;;;;5074349;28;20040;-71
2023/12/01 06:52:41;;;;;;;29.73;14.80;;;-2.60;99.90;;;;;;5074752;28;20488;-71
2023/12/01 06:55:07;;;;;;;33.83;16.75;;;-2.60;99.90;;;;;;5091960;28;20495;-73
2023/12/01 06:57:40;;;;;;;33.42;16.80;;;-2.60;99.90;;;;;;5074660;28;20036;-72
2023/12/01 07:00:08;;;;;;;36.63;16.88;;;-2.60;99.90;;;;;;5091521;28;20040;-72
2023/12/01 07:02:37;;;;;;;36.40;17.58;;;-2.50;99.90;;;;;;5074801;28;20048;-72
2023/12/01 07:05:05;;;;;;;33.08;17.25;;;-2.50;99.90;;;;;;5091646;28;20458;-72
2023/12/01 07:07:32;;;;;;;36.60;17.77;;;-2.40;99.90;;;;;;5091746;28;20493;-72
2023/12/01 07:09:59;;;;;;;33.83;17.88;;;-2.40;99.90;;;;;;5075232;28;20551;-72
2023/12/01 07:12:25;;;;;;;34.45;16.02;;;-2.40;99.90;;;;;;5091669;28;20048;-72
2023/12/01 07:14:51;;;;;;;32.67;15.52;;;-2.40;99.90;;;;;;5091876;28;20089;-72
2023/12/01 07:17:16;;;;;;;31.48;15.80;;;-2.40;99.90;;;;;;5092225;28;20503;-72
2023/12/01 07:19:42;;;;;;;30.38;15.60;;;-2.50;99.90;;;;;;5091267;28;20032;-72
2023/12/01 07:22:08;;;;;;;29.15;15.43;;;-2.50;99.90;;;;;;5074609;28;20458;-72
2023/12/01 07:24:34;;;;;;;33.78;16.92;;;-2.60;99.90;;;;;;5057789;28;20093;-72
2023/12/01 07:27:01;;;;;;;33.72;17.13;;;-2.60;99.90;;;;;;5092397;28;20083;-72
2023/12/01 07:29:26;;;;;;;32.38;15.25;;;-2.50;99.90;;;;;;5091930;28;20040;-72
2023/12/01 07:31:52;;;;;;;26.23;13.02;;;-2.50;99.90;;;;;;5074778;28;20048;-73
2023/12/01 07:34:18;;;;;;;28.95;14.82;;;-2.40;99.90;;;;;;5091429;28;20036;-72
2023/12/01 07:36:44;;;;;;;27.95;13.80;;;-2.50;99.90;;;;;;5091663;28;20032;-72
2023/12/01 07:39:10;;;;;;;25.92;13.10;;;-2.50;99.90;;;;;;5091869;28;20125;-69
2023/12/01 07:41:36;;;;;;;26.98;14.27;;;-2.50;99.90;;;;;;5091066;28;20076;-70
2023/12/01 07:44:02;;;;;;;26.25;12.88;;;-2.50;99.90;;;;;;5074418;28;20048;-70
2023/12/01 07:46:32;;;;;;;27.58;14.93;;;-2.50;99.90;;;;;;5091310;28;20395;-70
2023/12/01 07:48:59;;;;;;;28.63;14.95;;;-2.60;99.90;;;;;;5074813;28;20044;-70
2023/12/01 07:51:25;;;;;;;30.02;14.63;;;-2.60;99.90;;;;;;5090831;28;20135;-70
2023/12/01 07:53:51;;;;;;;26.27;14.15;;;-2.60;99.90;;;;;;5074405;28;20085;-70
2023/12/01 07:56:21;;;;;;;29.02;14.52;;;-2.40;99.90;;;;;;5091003;28;20036;-70
2023/12/01 07:58:51;;;;;;;29.08;14.75;;;-2.40;99.90;;;;;;5091166;28;20438;-70
2023/12/01 08:01:17;;;;;;;28.95;15.45;;;-2.30;99.90;;;;;;5092635;28;20075;-70
2023/12/01 08:03:48;;;;;;;31.08;15.32;;;-2.20;99.90;;;;;;5094695;28;20078;-70
2023/12/01 08:06:14;;;;;;;29.77;15.57;;;-2.10;99.90;;;;;;5078151;28;20117;-70
2023/12/01 08:08:41;;;;;;;28.95;15.70;;;-2.00;99.90;;;;;;5094738;28;20036;-70
2023/12/01 08:11:07;;;;;;;30.73;16.63;;;-1.70;99.90;;;;;;5094390;28;20044;-69
2023/12/01 08:13:33;;;;;;;28.40;16.13;;;-1.80;99.90;;;;;;5077537;28;20036;-69
2023/12/01 08:15:59;;;;;;;29.08;16.42;;;-1.80;99.90;;;;;;5094369;28;20068;-69
2023/12/01 08:18:25;;;;;;;28.80;14.75;;;-1.90;99.90;;;;;;5094331;28;20046;-70
2023/12/01 08:20:51;;;;;;;29.13;15.88;;;-2.00;99.90;;;;;;5094107;28;20036;-70
2023/12/01 08:23:17;;;;;;;31.23;16.05;;;-2.00;99.90;;;;;;5077318;28;20047;-69
2023/12/01 08:25:43;;;;;;;28.33;15.57;;;-2.00;99.90;;;;;;5077387;28;20040;-70
2023/12/01 08:28:10;;;;;;;30.52;16.33;;;-1.90;99.90;;;;;;5077320;28;20044;-70
2023/12/01 08:30:36;;;;;;;27.95;15.73;;;-1.80;99.90;;;;;;5077312;28;20047;-69
2023/12/01 08:33:03;;;;;;;29.40;16.35;;;-1.60;99.90;;;;;;5077836;28;20496;-70
2023/12/01 08:35:28;;;;;;;25.90;14.30;;;-1.50;99.90;;;;;;5094320;28;20079;-69
2023/12/01 08:37:55;;;;;;;27.67;14.90;;;-1.30;99.90;;;;;;5094218;28;20132;-69
2023/12/01 08:40:21;;;;;;;26.83;14.70;;;-1.20;99.90;;;;;;5075891;28;20496;-69
2023/12/01 08:42:46;;;;;;;28.00;14.68;;;-1.20;99.90;;;;;;5094109;28;20028;-69
2023/12/01 08:45:12;;;;;;;26.48;14.95;;;-1.10;99.90;;;;;;5093786;28;20044;-70
2023/12/01 08:47:39;;;;;;;27.00;14.25;;;-1.10;99.90;;;;;;5076880;28;20113;-70
2023/12/01 08:50:05;;;;;;;25.75;14.55;;;-1.10;99.90;;;;;;5093682;28;20052;-69
2023/12/01 08:52:31;;;;;;;29.67;15.60;;;-1.10;99.90;;;;;;5093609;28;20518;-69
2023/12/01 08:54:58;;;;;;;25.73;13.68;;;-1.00;99.90;;;;;;5093965;28;20032;-69
2023/12/01 08:57:24;;;;;;;28.33;15.60;;;-0.90;99.90;;;;;;5093830;28;20050;-69
2023/12/01 08:59:50;;;;;;;27.20;15.27;;;-0.80;99.90;;;;;;5093471;28;20043;-69
2023/12/01 09:02:16;;;;;;;25.25;15.50;;;-0.90;99.90;;;;;;5076728;28;20044;-69
2023/12/01 09:04:41;;;;;;;27.63;14.90;;;-0.70;99.90;;;;;;5093732;28;20571;-69
2023/12/01 09:07:07;;;;;;;27.02;15.23;;;-0.70;99.90;;;;;;5076826;28;20044;-69
2023/12/01 09:09:33;;;;;;;28.10;15.18;;;-0.90;99.90;;;;;;5093401;28;20040;-69
2023/12/01 09:11:59;;;;;;;25.95;14.35;;;-0.90;99.90;;;;;;5059596;28;20048;-69
2023/12/01 09:14:24;;;;;;;29.38;16.33;;;-0.90;99.90;;;;;;5093460;28;20071;-69
2023/12/01 09:16:50;;;;;;;26.15;13.45;;;-0.90;99.90;;;;;;5093259;28;20044;-69
2023/12/01 09:19:16;;;;;;;27.95;15.57;;;-0.90;99.90;;;;;;5093225;28;20056;-69
2023/12/01 09:21:42;;;;;;;27.85;15.52;;;-0.90;99.90;;;;;;5093065;28;20453;-69
2023/12/01 09:24:08;;;;;;;27.58;16.63;;;-0.80;99.90;;;;;;5076124;28;20066;-69
2023/12/01 09:26:33;;;;;;;28.98;15.90;;;-0.90;99.90;;;;;;5076529;28;20046;-69
2023/12/01 09:28:59;;;;;;;28.80;15.48;;;-1.20;99.90;;;;;;5076378;28;20118;-69
2023/12/01 09:31:25;;;;;;;29.27;15.63;;;-1.20;99.90;;;;;;5092886;28;20047;-69
2023/12/01 09:33:51;;;;;;;26.42;15.15;;;-1.20;99.90;;;;;;5092935;28;20040;-69
2023/12/01 09:36:17;;;;;;;28.95;15.90;;;-1.20;99.90;;;;;;5093123;28;20032;-69
2023/12/01 09:38:44;;;;;;;29.70;16.67;;;-1.20;99.90;;;;;;5093304;28;20039;-69
2023/12/01 09:41:10;;;;;;;24.38;13.85;;;-1.30;99.90;;;;;;5093002;28;20039;-69
2023/12/01 09:43:38;;;;;;;29.33;16.83;;;-1.40;99.90;;;;;;5075924;28;20040;-69
2023/12/01 09:46:04;;;;;;;27.25;15.52;;;-1.40;99.90;;;;;;5075777;28;20040;-69
2023/12/01 09:48:34;;;;;;;27.95;15.20;;;-1.40;99.90;;;;;;5076067;28;20036;-69
2023/12/01 09:51:00;;;;;;;27.85;15.98;;;-1.40;99.90;;;;;;5092336;28;20063;-69
2023/12/01 09:53:26;;;;;;;27.15;14.95;;;-1.30;99.90;;;;;;5075977;28;20036;-69
2023/12/01 09:55:52;;;;;;;30.27;16.50;;;-1.20;99.90;;;;;;5092723;28;20135;-70
2023/12/01 09:58:19;;;;;;;26.98;15.48;;;-1.20;99.90;;;;;;5092754;28;20043;-72
2023/12/01 10:00:48;;;;;;;29.80;17.65;;;-1.10;99.90;;;;;;5092324;28;20040;-71
2023/12/01 10:03:14;;;;;;;30.35;17.33;;;-0.90;99.90;;;;;;5092307;28;20083;-71
2023/12/01 10:05:40;;;;;;;27.45;16.73;;;-0.80;99.90;;;;;;5092673;28;20520;-72
2023/12/01 10:08:06;;;;;;;27.55;16.45;;;-0.70;99.90;;;;;;5092276;28;20044;-72
2023/12/01 10:10:33;;;;;;;27.40;16.70;;;-0.60;99.90;;;;;;5092489;28;20048;-72
2023/12/01 10:13:04;;;;;;;27.30;16.40;;;-0.70;99.90;;;;;;5058594;28;20036;-72
2023/12/01 10:15:31;;;;;;;26.52;15.98;;;-0.80;99.90;;;;;;5092164;28;20098;-72
2023/12/01 10:18:23;;;;;;;26.65;15.55;;;-0.90;99.90;;;;;;5092443;28;20036;-72
2023/12/01 10:21:07;;;;;;;25.92;14.65;;;-1.00;99.90;;;;;;5075878;28;20072;-72
2023/12/01 10:23:33;;;;;;;24.48;15.10;;;-1.00;99.90;;;;;;5092067;28;20094;-72
2023/12/01 10:26:03;;;;;;;24.23;13.75;;;-0.90;99.90;;;;;;5091951;28;20043;-71
2023/12/01 10:28:43;;;;;;;25.95;14.70;;;-0.90;99.90;;;;;;5091928;28;20071;-72
2023/12/01 10:31:09;;;;;;;23.63;14.52;;;-0.80;99.90;;;;;;5092042;28;20044;-72
2023/12/01 10:33:35;;;;;;;23.55;13.98;;;-0.70;99.90;;;;;;5091799;28;20121;-71
2023/12/01 10:36:07;;;;;;;23.77;14.65;;;-0.70;99.90;;;;;;5091902;28;20062;-72
2023/12/01 10:38:34;;;;;;;25.17;13.55;;;-0.70;99.90;;;;;;5091967;28;20040;-72
2023/12/01 10:41:03;;;;;;;18.42;10.30;;;-0.70;99.90;;;;;;5075225;28;20094;-72
2023/12/01 10:43:29;;;;;;;23.83;14.80;;;-0.60;99.90;;;;;;5091675;28;20043;-72
2023/12/01 10:46:00;;;;;;;20.80;11.38;;;-0.70;99.90;;;;;;5092014;28;20044;-72
2023/12/01 10:48:29;;;;;;;19.65;10.57;;;-0.70;99.90;;;;;;5091632;28;20047;-72
2023/12/01 10:50:55;;;;;;;24.45;14.43;;;-0.70;99.90;;;;;;5091424;28;20110;-72
2023/12/01 10:53:26;;;;;;;21.95;12.50;;;-0.90;99.90;;;;;;5091592;28;20079;-72
2023/12/01 10:55:54;;;;;;;22.20;12.45;;;-0.80;99.90;;;;;;5091867;28;20040;-72
2023/12/01 10:58:22;;;;;;;26.55;13.52;;;-0.80;99.90;;;;;;5091501;28;20036;-71
2023/12/01 11:00:49;;;;;;;21.95;12.30;;;-0.80;99.90;;;;;;5091532;28;20103;-71
2023/12/01 11:03:22;;;;;;;21.23;10.93;;;-0.70;99.90;;;;;;5091557;28;20048;-72
2023/12/01 11:06:10;;;;;;;21.02;11.43;;;-0.70;99.90;;;;;;5091424;28;20130;-71
2023/12/01 11:08:56;;;;;;;24.60;12.77;;;-0.70;99.90;;;;;;5091538;28;20036;-69
2023/12/01 11:11:49;;;;;;;22.90;12.25;;;-0.60;99.90;;;;;;5074802;28;20508;-69
2023/12/01 11:14:20;;;;;;;22.08;11.38;;;-0.60;99.90;;;;;;5091382;28;20102;-69
2023/12/01 11:16:49;;;;;;;24.63;12.90;;;-0.70;99.90;;;;;;5074637;28;20044;-69
2023/12/01 11:19:16;;;;;;;28.15;14.90;;;-0.70;99.90;;;;;;5091482;28;20066;-69
2023/12/01 11:21:54;;;;;;;22.38;11.40;;;-0.70;99.90;;;;;;5091405;28;20044;-69
2023/12/01 11:24:31;;;;;;;23.88;13.18;;;-0.60;99.90;;;;;;5091668;28;20047;-69
2023/12/01 11:27:03;;;;;;;23.92;12.63;;;-0.60;99.90;;;;;;5091534;28;20558;-69
2023/12/01 11:29:30;;;;;;;23.25;12.60;;;-0.70;99.90;;;;;;5091410;28;20079;-72
2023/12/01 11:31:57;;;;;;;22.25;12.23;;;-0.70;99.90;;;;;;5074426;28;20038;-71
2023/12/01 11:34:25;;;;;;;24.73;13.30;;;-0.70;99.90;;;;;;5058133;28;20044;-71
2023/12/01 11:36:54;;;;;;;24.75;12.75;;;-0.50;99.90;;;;;;5077371;28;20058;-71
2023/12/01 11:41:55;;;;;;;25.80;14.30;;;-0.60;99.90;;;;;;5095401;28;20084;-71
2023/12/01 11:44:27;;;;;;;24.92;13.45;;;-0.70;99.90;;;;;;5096420;28;20071;-71
2023/12/01 11:47:00;;;;;;;26.90;14.40;;;-0.40;99.90;;;;;;5095002;28;20040;-71
2023/12/01 11:49:32;;;;;;;25.23;14.18;;;-0.70;99.90;;;;;;5094887;28;20040;-72
2023/12/01 11:51:59;;;;;;;28.25;13.68;;;-0.70;99.90;;;;;;5094621;28;20052;-71
2023/12/01 11:54:24;;;;;;;27.45;13.93;;;-0.70;99.90;;;;;;5094784;28;20051;-72
2023/12/01 11:56:52;;;;;;;27.63;14.48;;;-0.60;99.90;;;;;;5095121;28;20173;-71
2023/12/01 11:59:19;;;;;;;26.45;14.05;;;-0.70;99.90;;;;;;5094597;28;20092;-71
2023/12/01 12:01:46;;;;;;;25.10;12.93;;;-0.60;99.90;;;;;;5077834;28;20112;-72
2023/12/01 12:04:16;;;;;;;24.67;13.43;;;-0.60;99.90;;;;;;5077885;28;20115;-71
2023/12/01 12:06:45;;;;;;;23.52;12.90;;;-0.60;99.90;;;;;;5094579;28;20174;-72
2023/12/01 12:09:19;;;;;;;29.92;16.00;;;-0.60;99.90;;;;;;5094585;28;20040;-71
2023/12/01 12:11:50;;;;;;;26.90;14.68;;;-0.60;99.90;;;;;;5061579;28;20040;-72
2023/12/01 12:14:16;;;;;;;26.88;15.52;;;-0.70;99.90;;;;;;5077857;28;20028;-71
2023/12/01 12:16:42;;;;;;;28.17;15.52;;;-0.70;99.90;;;;;;5094478;28;20036;-72
2023/12/01 12:19:08;;;;;;;28.73;17.15;;;-0.70;99.90;;;;;;5094282;28;20122;-71
2023/12/01 12:21:35;;;;;;;27.38;15.90;;;-0.70;99.90;;;;;;5094240;28;20062;-72
2023/12/01 12:24:01;;;;;;;26.33;15.50;;;-0.60;99.90;;;;;;5077707;28;20422;-71
2023/12/01 12:26:28;;;;;;;29.23;16.38;;;-0.60;99.90;;;;;;5094368;28;20373;-71
2023/12/01 12:29:00;;;;;;;22.27;12.32;;;-0.60;99.90;;;;;;5094686;28;20408;-69
2023/12/01 12:31:28;;;;;;;27.48;15.85;;;-0.50;99.90;;;;;;5094356;28;20487;-69